sensor_id;sensor_type;location;lat;lon;timestamp;pressure;altitude;pressure_sealevel;temperature
79488;BMP180;68949;53.176;18.088;2023-05-25T00:00:14;101119.00;;;
79488;BMP180;68949;53.176;18.088;2023-05-25T00:03:04;101116.80;;;
79488;BMP180;68949;53.176;18.088;2023-05-25T00:05:31;101120.20;;;
79488;BMP180;68949;53.176;18.088;2023-05-25T00:08:00;101118.00;;;
79488;BMP180;68949;53.176;18.088;2023-05-25T00:10:26;101113.80;;;
79488;BMP180;68949;53.176;18.088;2023-05-25T00:12:53;101114.00;;;
79488;BMP180;68949;53.176;18.088;2023-05-25T00:15:22;101115.00;;;
79488;BMP180;68949;53.176;18.088;2023-05-25T00:17:49;101114.40;;;
79488;BMP180;68949;53.176;18.088;2023-05-25T00:20:15;101120.20;;;
79488;BMP180;68949;53.176;18.088;2023-05-25T00:22:43;101122.40;;;
79488;BMP180;68949;53.176;18.088;2023-05-25T00:25:12;101127.00;;;
79488;BMP180;68949;53.176;18.088;2023-05-25T00:27:39;101125.60;;;
79488;BMP180;68949;53.176;18.088;2023-05-25T00:30:07;101123.20;;;
79488;BMP180;68949;53.176;18.088;2023-05-25T00:32:33;101125.20;;;
79488;BMP180;68949;53.176;18.088;2023-05-25T00:35:00;101125.20;;;
79488;BMP180;68949;53.176;18.088;2023-05-25T00:37:27;101122.80;;;
79488;BMP180;68949;53.176;18.088;2023-05-25T00:39:53;101121.60;;;
79488;BMP180;68949;53.176;18.088;2023-05-25T00:42:21;101124.40;;;
79488;BMP180;68949;53.176;18.088;2023-05-25T00:44:49;101124.80;;;
79488;BMP180;68949;53.176;18.088;2023-05-25T00:47:15;101121.80;;;
79488;BMP180;68949;53.176;18.088;2023-05-25T00:49:43;101121.00;;;
79488;BMP180;68949;53.176;18.088;2023-05-25T00:52:11;101123.80;;;
79488;BMP180;68949;53.176;18.088;2023-05-25T00:54:38;101121.60;;;
79488;BMP180;68949;53.176;18.088;2023-05-25T00:57:09;101127.80;;;
79488;BMP180;68949;53.176;18.088;2023-05-25T00:59:49;101129.40;;;
79488;BMP180;68949;53.176;18.088;2023-05-25T01:02:18;101132.80;;;
79488;BMP180;68949;53.176;18.088;2023-05-25T01:04:56;101136.00;;;
79488;BMP180;68949;53.176;18.088;2023-05-25T01:07:29;101132.20;;;
79488;BMP180;68949;53.176;18.088;2023-05-25T01:10:01;101130.80;;;
79488;BMP180;68949;53.176;18.088;2023-05-25T01:12:28;101132.00;;;
79488;BMP180;68949;53.176;18.088;2023-05-25T01:14:56;101134.20;;;
79488;BMP180;68949;53.176;18.088;2023-05-25T01:17:25;101127.80;;;
79488;BMP180;68949;53.176;18.088;2023-05-25T01:19:55;101130.80;;;
79488;BMP180;68949;53.176;18.088;2023-05-25T01:25:08;101134.60;;;
79488;BMP180;68949;53.176;18.088;2023-05-25T01:27:46;101136.60;;;
79488;BMP180;68949;53.176;18.088;2023-05-25T01:30:15;101139.20;;;
79488;BMP180;68949;53.176;18.088;2023-05-25T01:32:44;101145.20;;;
79488;BMP180;68949;53.176;18.088;2023-05-25T01:35:13;101147.20;;;
79488;BMP180;68949;53.176;18.088;2023-05-25T01:37:48;101148.60;;;
79488;BMP180;68949;53.176;18.088;2023-05-25T01:40:15;101144.20;;;
79488;BMP180;68949;53.176;18.088;2023-05-25T01:42:42;101147.80;;;
79488;BMP180;68949;53.176;18.088;2023-05-25T01:45:11;101145.60;;;
79488;BMP180;68949;53.176;18.088;2023-05-25T01:48:14;101145.60;;;
79488;BMP180;68949;53.176;18.088;2023-05-25T01:50:54;101147.60;;;
79488;BMP180;68949;53.176;18.088;2023-05-25T01:53:36;101144.80;;;
79488;BMP180;68949;53.176;18.088;2023-05-25T01:56:08;101142.40;;;
79488;BMP180;68949;53.176;18.088;2023-05-25T01:58:41;101142.80;;;
79488;BMP180;68949;53.176;18.088;2023-05-25T02:01:12;101144.60;;;
79488;BMP180;68949;53.176;18.088;2023-05-25T02:03:43;101143.60;;;
79488;BMP180;68949;53.176;18.088;2023-05-25T02:06:12;101149.20;;;
79488;BMP180;68949;53.176;18.088;2023-05-25T02:08:38;101148.80;;;
79488;BMP180;68949;53.176;18.088;2023-05-25T02:11:05;101145.80;;;
79488;BMP180;68949;53.176;18.088;2023-05-25T02:13:32;101150.40;;;
79488;BMP180;68949;53.176;18.088;2023-05-25T02:15:58;101142.40;;;
79488;BMP180;68949;53.176;18.088;2023-05-25T02:18:25;101139.80;;;
79488;BMP180;68949;53.176;18.088;2023-05-25T02:20:54;101142.20;;;
79488;BMP180;68949;53.176;18.088;2023-05-25T02:23:20;101146.40;;;
79488;BMP180;68949;53.176;18.088;2023-05-25T02:25:47;101146.00;;;
79488;BMP180;68949;53.176;18.088;2023-05-25T02:28:14;101146.20;;;
79488;BMP180;68949;53.176;18.088;2023-05-25T02:30:41;101142.40;;;
79488;BMP180;68949;53.176;18.088;2023-05-25T02:33:07;101147.80;;;
79488;BMP180;68949;53.176;18.088;2023-05-25T02:35:35;101144.00;;;
79488;BMP180;68949;53.176;18.088;2023-05-25T02:38:01;101147.40;;;
79488;BMP180;68949;53.176;18.088;2023-05-25T02:40:28;101149.20;;;
79488;BMP180;68949;53.176;18.088;2023-05-25T02:42:55;101150.40;;;
79488;BMP180;68949;53.176;18.088;2023-05-25T02:45:22;101150.00;;;
79488;BMP180;68949;53.176;18.088;2023-05-25T02:47:49;101144.80;;;
79488;BMP180;68949;53.176;18.088;2023-05-25T02:50:16;101141.60;;;
79488;BMP180;68949;53.176;18.088;2023-05-25T02:52:44;101142.80;;;
79488;BMP180;68949;53.176;18.088;2023-05-25T02:55:11;101145.60;;;
79488;BMP180;68949;53.176;18.088;2023-05-25T02:57:39;101143.40;;;
79488;BMP180;68949;53.176;18.088;2023-05-25T03:00:07;101144.00;;;
79488;BMP180;68949;53.176;18.088;2023-05-25T03:02:37;101138.20;;;
79488;BMP180;68949;53.176;18.088;2023-05-25T03:05:05;101135.60;;;
79488;BMP180;68949;53.176;18.088;2023-05-25T03:07:32;101141.00;;;
79488;BMP180;68949;53.176;18.088;2023-05-25T03:09:58;101138.80;;;
79488;BMP180;68949;53.176;18.088;2023-05-25T03:12:25;101138.60;;;
79488;BMP180;68949;53.176;18.088;2023-05-25T03:14:52;101138.80;;;
79488;BMP180;68949;53.176;18.088;2023-05-25T03:17:19;101144.60;;;
79488;BMP180;68949;53.176;18.088;2023-05-25T03:19:46;101143.40;;;
79488;BMP180;68949;53.176;18.088;2023-05-25T03:22:13;101141.00;;;
79488;BMP180;68949;53.176;18.088;2023-05-25T03:24:40;101149.80;;;
79488;BMP180;68949;53.176;18.088;2023-05-25T03:27:07;101150.40;;;
79488;BMP180;68949;53.176;18.088;2023-05-25T03:29:34;101154.40;;;
79488;BMP180;68949;53.176;18.088;2023-05-25T03:32:01;101155.00;;;
79488;BMP180;68949;53.176;18.088;2023-05-25T03:34:28;101156.60;;;
79488;BMP180;68949;53.176;18.088;2023-05-25T03:36:55;101158.80;;;
79488;BMP180;68949;53.176;18.088;2023-05-25T03:39:22;101162.20;;;
79488;BMP180;68949;53.176;18.088;2023-05-25T03:41:49;101167.80;;;
79488;BMP180;68949;53.176;18.088;2023-05-25T03:44:17;101172.80;;;
79488;BMP180;68949;53.176;18.088;2023-05-25T03:46:44;101168.40;;;
79488;BMP180;68949;53.176;18.088;2023-05-25T03:49:12;101166.40;;;
79488;BMP180;68949;53.176;18.088;2023-05-25T03:51:40;101164.00;;;
79488;BMP180;68949;53.176;18.088;2023-05-25T03:54:07;101164.60;;;
79488;BMP180;68949;53.176;18.088;2023-05-25T03:56:34;101165.00;;;
79488;BMP180;68949;53.176;18.088;2023-05-25T03:59:00;101164.40;;;
79488;BMP180;68949;53.176;18.088;2023-05-25T04:01:27;101161.80;;;
79488;BMP180;68949;53.176;18.088;2023-05-25T04:03:55;101161.60;;;
79488;BMP180;68949;53.176;18.088;2023-05-25T04:06:22;101160.60;;;
79488;BMP180;68949;53.176;18.088;2023-05-25T04:08:51;101161.20;;;
79488;BMP180;68949;53.176;18.088;2023-05-25T04:11:18;101160.80;;;
79488;BMP180;68949;53.176;18.088;2023-05-25T04:13:46;101162.80;;;
79488;BMP180;68949;53.176;18.088;2023-05-25T04:16:13;101161.60;;;
79488;BMP180;68949;53.176;18.088;2023-05-25T04:18:41;101156.00;;;
79488;BMP180;68949;53.176;18.088;2023-05-25T04:21:07;101154.00;;;
79488;BMP180;68949;53.176;18.088;2023-05-25T04:23:34;101150.00;;;
79488;BMP180;68949;53.176;18.088;2023-05-25T04:26:01;101153.40;;;
79488;BMP180;68949;53.176;18.088;2023-05-25T04:28:28;101151.40;;;
79488;BMP180;68949;53.176;18.088;2023-05-25T04:31:27;101153.60;;;
79488;BMP180;68949;53.176;18.088;2023-05-25T04:34:14;101153.60;;;
79488;BMP180;68949;53.176;18.088;2023-05-25T04:36:47;101155.00;;;
79488;BMP180;68949;53.176;18.088;2023-05-25T04:39:14;101156.40;;;
79488;BMP180;68949;53.176;18.088;2023-05-25T04:41:46;101146.60;;;
79488;BMP180;68949;53.176;18.088;2023-05-25T04:44:13;101141.60;;;
79488;BMP180;68949;53.176;18.088;2023-05-25T04:46:47;101137.60;;;
79488;BMP180;68949;53.176;18.088;2023-05-25T04:49:18;101130.00;;;
79488;BMP180;68949;53.176;18.088;2023-05-25T04:51:45;101130.60;;;
79488;BMP180;68949;53.176;18.088;2023-05-25T04:54:12;101123.60;;;
79488;BMP180;68949;53.176;18.088;2023-05-25T04:56:39;101125.80;;;
79488;BMP180;68949;53.176;18.088;2023-05-25T04:59:06;101121.80;;;
79488;BMP180;68949;53.176;18.088;2023-05-25T05:01:33;101126.20;;;
79488;BMP180;68949;53.176;18.088;2023-05-25T05:04:06;101121.60;;;
79488;BMP180;68949;53.176;18.088;2023-05-25T05:06:34;101118.20;;;
79488;BMP180;68949;53.176;18.088;2023-05-25T05:09:02;101117.00;;;
79488;BMP180;68949;53.176;18.088;2023-05-25T05:11:32;101123.60;;;
79488;BMP180;68949;53.176;18.088;2023-05-25T05:13:59;101140.80;;;
79488;BMP180;68949;53.176;18.088;2023-05-25T05:16:27;101136.20;;;
79488;BMP180;68949;53.176;18.088;2023-05-25T05:19:00;101136.20;;;
79488;BMP180;68949;53.176;18.088;2023-05-25T05:21:27;101137.20;;;
79488;BMP180;68949;53.176;18.088;2023-05-25T05:23:54;101130.80;;;
79488;BMP180;68949;53.176;18.088;2023-05-25T05:26:22;101127.20;;;
79488;BMP180;68949;53.176;18.088;2023-05-25T05:28:49;101108.60;;;
79488;BMP180;68949;53.176;18.088;2023-05-25T05:31:18;101097.80;;;
79488;BMP180;68949;53.176;18.088;2023-05-25T05:33:45;101098.80;;;
79488;BMP180;68949;53.176;18.088;2023-05-25T05:36:12;101108.40;;;
79488;BMP180;68949;53.176;18.088;2023-05-25T05:38:39;101095.20;;;
79488;BMP180;68949;53.176;18.088;2023-05-25T05:41:07;101094.00;;;
79488;BMP180;68949;53.176;18.088;2023-05-25T05:43:40;101087.00;;;
79488;BMP180;68949;53.176;18.088;2023-05-25T05:46:09;101106.40;;;
79488;BMP180;68949;53.176;18.088;2023-05-25T05:48:36;101098.40;;;
79488;BMP180;68949;53.176;18.088;2023-05-25T05:51:05;101092.80;;;
79488;BMP180;68949;53.176;18.088;2023-05-25T05:53:32;101090.00;;;
79488;BMP180;68949;53.176;18.088;2023-05-25T05:56:02;101106.20;;;
79488;BMP180;68949;53.176;18.088;2023-05-25T05:58:29;101124.20;;;
79488;BMP180;68949;53.176;18.088;2023-05-25T06:00:57;101118.20;;;
79488;BMP180;68949;53.176;18.088;2023-05-25T06:03:25;101125.60;;;
79488;BMP180;68949;53.176;18.088;2023-05-25T06:05:55;101122.00;;;
79488;BMP180;68949;53.176;18.088;2023-05-25T06:08:21;101120.40;;;
79488;BMP180;68949;53.176;18.088;2023-05-25T06:10:48;101136.80;;;
79488;BMP180;68949;53.176;18.088;2023-05-25T06:13:15;101121.60;;;
79488;BMP180;68949;53.176;18.088;2023-05-25T06:15:42;101121.60;;;
79488;BMP180;68949;53.176;18.088;2023-05-25T06:18:11;101145.60;;;
79488;BMP180;68949;53.176;18.088;2023-05-25T06:20:38;101128.40;;;
79488;BMP180;68949;53.176;18.088;2023-05-25T06:23:05;101141.40;;;
79488;BMP180;68949;53.176;18.088;2023-05-25T06:25:32;101142.80;;;
79488;BMP180;68949;53.176;18.088;2023-05-25T06:27:59;101128.20;;;
79488;BMP180;68949;53.176;18.088;2023-05-25T06:30:26;101129.60;;;
79488;BMP180;68949;53.176;18.088;2023-05-25T06:32:53;101133.80;;;
79488;BMP180;68949;53.176;18.088;2023-05-25T06:35:19;101128.40;;;
79488;BMP180;68949;53.176;18.088;2023-05-25T06:37:48;101129.00;;;
79488;BMP180;68949;53.176;18.088;2023-05-25T06:40:17;101137.60;;;
79488;BMP180;68949;53.176;18.088;2023-05-25T06:42:45;101139.40;;;
79488;BMP180;68949;53.176;18.088;2023-05-25T06:45:30;101129.00;;;
79488;BMP180;68949;53.176;18.088;2023-05-25T06:47:57;101130.20;;;
79488;BMP180;68949;53.176;18.088;2023-05-25T06:50:25;101133.20;;;
79488;BMP180;68949;53.176;18.088;2023-05-25T06:52:52;101121.60;;;
79488;BMP180;68949;53.176;18.088;2023-05-25T06:55:18;101125.20;;;
79488;BMP180;68949;53.176;18.088;2023-05-25T06:57:45;101126.80;;;
79488;BMP180;68949;53.176;18.088;2023-05-25T07:00:13;101127.80;;;
79488;BMP180;68949;53.176;18.088;2023-05-25T07:02:39;101125.00;;;
79488;BMP180;68949;53.176;18.088;2023-05-25T07:05:07;101130.80;;;
79488;BMP180;68949;53.176;18.088;2023-05-25T07:07:33;101134.00;;;
79488;BMP180;68949;53.176;18.088;2023-05-25T07:10:02;101128.60;;;
79488;BMP180;68949;53.176;18.088;2023-05-25T07:12:29;101121.60;;;
79488;BMP180;68949;53.176;18.088;2023-05-25T07:14:57;101135.40;;;
79488;BMP180;68949;53.176;18.088;2023-05-25T07:17:24;101147.20;;;
79488;BMP180;68949;53.176;18.088;2023-05-25T07:19:50;101121.40;;;
79488;BMP180;68949;53.176;18.088;2023-05-25T07:22:17;101123.80;;;
79488;BMP180;68949;53.176;18.088;2023-05-25T07:24:45;101134.20;;;
79488;BMP180;68949;53.176;18.088;2023-05-25T07:27:15;101141.80;;;
79488;BMP180;68949;53.176;18.088;2023-05-25T07:29:42;101143.20;;;
79488;BMP180;68949;53.176;18.088;2023-05-25T07:32:08;101145.40;;;
79488;BMP180;68949;53.176;18.088;2023-05-25T07:34:35;101131.80;;;
79488;BMP180;68949;53.176;18.088;2023-05-25T07:37:02;101141.60;;;
79488;BMP180;68949;53.176;18.088;2023-05-25T07:39:29;101153.60;;;
79488;BMP180;68949;53.176;18.088;2023-05-25T07:41:56;101145.40;;;
79488;BMP180;68949;53.176;18.088;2023-05-25T07:44:22;101149.60;;;
79488;BMP180;68949;53.176;18.088;2023-05-25T07:46:50;101167.60;;;
79488;BMP180;68949;53.176;18.088;2023-05-25T07:49:16;101168.00;;;
79488;BMP180;68949;53.176;18.088;2023-05-25T07:51:44;101157.60;;;
79488;BMP180;68949;53.176;18.088;2023-05-25T07:54:11;101160.80;;;
79488;BMP180;68949;53.176;18.088;2023-05-25T07:56:38;101149.00;;;
79488;BMP180;68949;53.176;18.088;2023-05-25T07:59:04;101146.60;;;
79488;BMP180;68949;53.176;18.088;2023-05-25T08:01:31;101148.00;;;
79488;BMP180;68949;53.176;18.088;2023-05-25T08:03:58;101150.20;;;
79488;BMP180;68949;53.176;18.088;2023-05-25T08:06:25;101163.00;;;
79488;BMP180;68949;53.176;18.088;2023-05-25T08:08:52;101155.60;;;
79488;BMP180;68949;53.176;18.088;2023-05-25T08:11:23;101156.20;;;
79488;BMP180;68949;53.176;18.088;2023-05-25T08:13:53;101148.40;;;
79488;BMP180;68949;53.176;18.088;2023-05-25T08:16:19;101136.20;;;
79488;BMP180;68949;53.176;18.088;2023-05-25T08:18:46;101159.60;;;
79488;BMP180;68949;53.176;18.088;2023-05-25T08:21:13;101143.00;;;
79488;BMP180;68949;53.176;18.088;2023-05-25T08:23:40;101135.20;;;
79488;BMP180;68949;53.176;18.088;2023-05-25T08:26:09;101139.00;;;
79488;BMP180;68949;53.176;18.088;2023-05-25T08:28:36;101139.00;;;
79488;BMP180;68949;53.176;18.088;2023-05-25T08:31:04;101154.80;;;
79488;BMP180;68949;53.176;18.088;2023-05-25T08:33:30;101150.60;;;
79488;BMP180;68949;53.176;18.088;2023-05-25T08:35:57;101139.20;;;
79488;BMP180;68949;53.176;18.088;2023-05-25T08:38:24;101130.40;;;
79488;BMP180;68949;53.176;18.088;2023-05-25T08:41:05;101123.40;;;
79488;BMP180;68949;53.176;18.088;2023-05-25T08:43:33;101149.00;;;
79488;BMP180;68949;53.176;18.088;2023-05-25T08:46:06;101115.20;;;
79488;BMP180;68949;53.176;18.088;2023-05-25T08:48:36;101134.20;;;
79488;BMP180;68949;53.176;18.088;2023-05-25T08:51:07;101108.40;;;
79488;BMP180;68949;53.176;18.088;2023-05-25T08:53:37;101121.60;;;
79488;BMP180;68949;53.176;18.088;2023-05-25T08:56:16;101121.60;;;
79488;BMP180;68949;53.176;18.088;2023-05-25T08:59:11;101143.20;;;
79488;BMP180;68949;53.176;18.088;2023-05-25T09:01:45;101138.60;;;
79488;BMP180;68949;53.176;18.088;2023-05-25T09:04:12;101106.60;;;
79488;BMP180;68949;53.176;18.088;2023-05-25T09:06:39;101107.80;;;
79488;BMP180;68949;53.176;18.088;2023-05-25T09:09:07;101083.40;;;
79488;BMP180;68949;53.176;18.088;2023-05-25T09:11:35;101090.60;;;
79488;BMP180;68949;53.176;18.088;2023-05-25T09:14:02;101089.40;;;
79488;BMP180;68949;53.176;18.088;2023-05-25T09:16:30;101106.60;;;
79488;BMP180;68949;53.176;18.088;2023-05-25T09:18:58;101128.40;;;
79488;BMP180;68949;53.176;18.088;2023-05-25T09:21:25;101090.20;;;
79488;BMP180;68949;53.176;18.088;2023-05-25T09:23:52;101111.40;;;
79488;BMP180;68949;53.176;18.088;2023-05-25T09:26:19;101111.80;;;
79488;BMP180;68949;53.176;18.088;2023-05-25T09:28:47;101106.60;;;
79488;BMP180;68949;53.176;18.088;2023-05-25T09:31:15;101093.00;;;
79488;BMP180;68949;53.176;18.088;2023-05-25T09:33:42;101103.80;;;
79488;BMP180;68949;53.176;18.088;2023-05-25T09:36:11;101094.20;;;
79488;BMP180;68949;53.176;18.088;2023-05-25T09:38:40;101082.40;;;
79488;BMP180;68949;53.176;18.088;2023-05-25T09:41:08;101094.80;;;
79488;BMP180;68949;53.176;18.088;2023-05-25T09:43:34;101096.80;;;
79488;BMP180;68949;53.176;18.088;2023-05-25T09:46:01;101124.00;;;
79488;BMP180;68949;53.176;18.088;2023-05-25T09:48:28;101126.60;;;
79488;BMP180;68949;53.176;18.088;2023-05-25T09:50:55;101119.80;;;
79488;BMP180;68949;53.176;18.088;2023-05-25T09:53:22;101119.00;;;
79488;BMP180;68949;53.176;18.088;2023-05-25T09:55:50;101130.00;;;
79488;BMP180;68949;53.176;18.088;2023-05-25T09:58:17;101107.20;;;
79488;BMP180;68949;53.176;18.088;2023-05-25T10:00:44;101120.80;;;
79488;BMP180;68949;53.176;18.088;2023-05-25T10:03:11;101115.00;;;
79488;BMP180;68949;53.176;18.088;2023-05-25T10:05:40;101129.00;;;
79488;BMP180;68949;53.176;18.088;2023-05-25T10:08:09;101118.20;;;
79488;BMP180;68949;53.176;18.088;2023-05-25T10:10:38;101112.60;;;
79488;BMP180;68949;53.176;18.088;2023-05-25T10:13:07;101132.80;;;
79488;BMP180;68949;53.176;18.088;2023-05-25T10:15:39;101107.80;;;
79488;BMP180;68949;53.176;18.088;2023-05-25T10:18:08;101114.40;;;
79488;BMP180;68949;53.176;18.088;2023-05-25T10:20:35;101120.00;;;
79488;BMP180;68949;53.176;18.088;2023-05-25T10:23:09;101120.80;;;
79488;BMP180;68949;53.176;18.088;2023-05-25T10:25:44;101111.80;;;
79488;BMP180;68949;53.176;18.088;2023-05-25T10:28:26;101118.60;;;
79488;BMP180;68949;53.176;18.088;2023-05-25T10:30:58;101122.80;;;
79488;BMP180;68949;53.176;18.088;2023-05-25T10:33:25;101122.00;;;
79488;BMP180;68949;53.176;18.088;2023-05-25T10:35:54;101130.20;;;
79488;BMP180;68949;53.176;18.088;2023-05-25T10:38:21;101130.80;;;
79488;BMP180;68949;53.176;18.088;2023-05-25T10:40:49;101134.60;;;
79488;BMP180;68949;53.176;18.088;2023-05-25T10:43:18;101151.40;;;
79488;BMP180;68949;53.176;18.088;2023-05-25T10:45:47;101126.60;;;
79488;BMP180;68949;53.176;18.088;2023-05-25T10:48:16;101129.00;;;
79488;BMP180;68949;53.176;18.088;2023-05-25T10:50:49;101128.80;;;
79488;BMP180;68949;53.176;18.088;2023-05-25T10:53:19;101125.60;;;
79488;BMP180;68949;53.176;18.088;2023-05-25T10:58:21;101132.20;;;
79488;BMP180;68949;53.176;18.088;2023-05-25T11:01:05;101114.60;;;
79488;BMP180;68949;53.176;18.088;2023-05-25T11:03:56;101116.20;;;
79488;BMP180;68949;53.176;18.088;2023-05-25T11:09:05;101120.80;;;
79488;BMP180;68949;53.176;18.088;2023-05-25T11:17:17;101098.20;;;
79488;BMP180;68949;53.176;18.088;2023-05-25T11:19:49;101094.60;;;
79488;BMP180;68949;53.176;18.088;2023-05-25T11:22:49;101091.80;;;
79488;BMP180;68949;53.176;18.088;2023-05-25T11:25:48;101106.20;;;
79488;BMP180;68949;53.176;18.088;2023-05-25T11:28:15;101112.40;;;
79488;BMP180;68949;53.176;18.088;2023-05-25T11:30:42;101101.60;;;
79488;BMP180;68949;53.176;18.088;2023-05-25T11:33:09;101073.80;;;
79488;BMP180;68949;53.176;18.088;2023-05-25T11:35:36;101095.20;;;
79488;BMP180;68949;53.176;18.088;2023-05-25T11:38:06;101088.20;;;
79488;BMP180;68949;53.176;18.088;2023-05-25T11:40:33;101082.20;;;
79488;BMP180;68949;53.176;18.088;2023-05-25T11:43:01;101092.20;;;
79488;BMP180;68949;53.176;18.088;2023-05-25T11:45:32;101083.20;;;
79488;BMP180;68949;53.176;18.088;2023-05-25T11:47:59;101097.00;;;
79488;BMP180;68949;53.176;18.088;2023-05-25T11:50:26;101080.00;;;
79488;BMP180;68949;53.176;18.088;2023-05-25T11:52:53;101089.20;;;
79488;BMP180;68949;53.176;18.088;2023-05-25T11:55:21;101083.00;;;
79488;BMP180;68949;53.176;18.088;2023-05-25T11:57:55;101078.40;;;
79488;BMP180;68949;53.176;18.088;2023-05-25T12:00:26;101094.00;;;
79488;BMP180;68949;53.176;18.088;2023-05-25T12:02:54;101097.60;;;
79488;BMP180;68949;53.176;18.088;2023-05-25T12:05:23;101073.00;;;
79488;BMP180;68949;53.176;18.088;2023-05-25T12:07:50;101074.20;;;
79488;BMP180;68949;53.176;18.088;2023-05-25T12:10:17;101083.20;;;
79488;BMP180;68949;53.176;18.088;2023-05-25T12:12:49;101085.20;;;
79488;BMP180;68949;53.176;18.088;2023-05-25T12:15:25;101080.80;;;
79488;BMP180;68949;53.176;18.088;2023-05-25T12:17:52;101068.40;;;
79488;BMP180;68949;53.176;18.088;2023-05-25T12:20:20;101055.40;;;
79488;BMP180;68949;53.176;18.088;2023-05-25T12:22:47;101076.20;;;
79488;BMP180;68949;53.176;18.088;2023-05-25T12:25:19;101074.80;;;
79488;BMP180;68949;53.176;18.088;2023-05-25T12:27:47;101069.60;;;
79488;BMP180;68949;53.176;18.088;2023-05-25T12:30:14;101059.20;;;
79488;BMP180;68949;53.176;18.088;2023-05-25T12:33:00;101074.40;;;
79488;BMP180;68949;53.176;18.088;2023-05-25T12:35:29;101072.40;;;
79488;BMP180;68949;53.176;18.088;2023-05-25T12:38:10;101069.00;;;
79488;BMP180;68949;53.176;18.088;2023-05-25T12:40:40;101058.60;;;
79488;BMP180;68949;53.176;18.088;2023-05-25T12:43:06;101059.40;;;
79488;BMP180;68949;53.176;18.088;2023-05-25T12:45:39;101072.00;;;
79488;BMP180;68949;53.176;18.088;2023-05-25T12:48:07;101060.80;;;
79488;BMP180;68949;53.176;18.088;2023-05-25T12:50:34;101068.80;;;
79488;BMP180;68949;53.176;18.088;2023-05-25T12:53:02;101049.40;;;
79488;BMP180;68949;53.176;18.088;2023-05-25T12:55:31;101060.40;;;
79488;BMP180;68949;53.176;18.088;2023-05-25T12:58:02;101041.00;;;
79488;BMP180;68949;53.176;18.088;2023-05-25T13:00:37;101053.20;;;
79488;BMP180;68949;53.176;18.088;2023-05-25T13:03:07;101035.80;;;
79488;BMP180;68949;53.176;18.088;2023-05-25T13:05:36;101062.60;;;
79488;BMP180;68949;53.176;18.088;2023-05-25T13:08:04;101053.20;;;
79488;BMP180;68949;53.176;18.088;2023-05-25T13:10:32;101067.40;;;
79488;BMP180;68949;53.176;18.088;2023-05-25T13:12:59;101054.00;;;
79488;BMP180;68949;53.176;18.088;2023-05-25T13:15:26;101074.00;;;
79488;BMP180;68949;53.176;18.088;2023-05-25T13:17:54;101043.40;;;
79488;BMP180;68949;53.176;18.088;2023-05-25T13:20:23;101049.60;;;
79488;BMP180;68949;53.176;18.088;2023-05-25T13:22:52;101054.20;;;
79488;BMP180;68949;53.176;18.088;2023-05-25T13:25:21;101062.60;;;
79488;BMP180;68949;53.176;18.088;2023-05-25T13:27:50;101069.20;;;
79488;BMP180;68949;53.176;18.088;2023-05-25T13:30:18;101056.00;;;
79488;BMP180;68949;53.176;18.088;2023-05-25T13:32:47;101070.80;;;
79488;BMP180;68949;53.176;18.088;2023-05-25T13:35:13;101042.20;;;
79488;BMP180;68949;53.176;18.088;2023-05-25T13:38:02;101055.60;;;
79488;BMP180;68949;53.176;18.088;2023-05-25T13:40:29;101042.80;;;
79488;BMP180;68949;53.176;18.088;2023-05-25T13:42:55;101041.60;;;
79488;BMP180;68949;53.176;18.088;2023-05-25T13:45:22;101039.60;;;
79488;BMP180;68949;53.176;18.088;2023-05-25T13:47:49;101038.20;;;
79488;BMP180;68949;53.176;18.088;2023-05-25T13:50:15;101041.20;;;
79488;BMP180;68949;53.176;18.088;2023-05-25T13:52:42;101028.40;;;
79488;BMP180;68949;53.176;18.088;2023-05-25T13:55:09;101020.60;;;
79488;BMP180;68949;53.176;18.088;2023-05-25T13:57:35;101035.60;;;
79488;BMP180;68949;53.176;18.088;2023-05-25T14:00:04;101021.80;;;
79488;BMP180;68949;53.176;18.088;2023-05-25T14:02:33;101032.80;;;
79488;BMP180;68949;53.176;18.088;2023-05-25T14:05:00;101033.40;;;
79488;BMP180;68949;53.176;18.088;2023-05-25T14:07:27;101042.80;;;
79488;BMP180;68949;53.176;18.088;2023-05-25T14:09:53;101049.40;;;
79488;BMP180;68949;53.176;18.088;2023-05-25T14:12:20;101017.40;;;
79488;BMP180;68949;53.176;18.088;2023-05-25T14:14:47;101026.00;;;
79488;BMP180;68949;53.176;18.088;2023-05-25T14:17:13;101021.00;;;
79488;BMP180;68949;53.176;18.088;2023-05-25T14:19:40;101008.00;;;
79488;BMP180;68949;53.176;18.088;2023-05-25T14:22:07;101013.20;;;
79488;BMP180;68949;53.176;18.088;2023-05-25T14:24:34;100995.60;;;
79488;BMP180;68949;53.176;18.088;2023-05-25T14:27:01;100996.40;;;
79488;BMP180;68949;53.176;18.088;2023-05-25T14:29:27;101024.60;;;
79488;BMP180;68949;53.176;18.088;2023-05-25T14:31:54;101022.40;;;
79488;BMP180;68949;53.176;18.088;2023-05-25T14:34:21;101010.00;;;
79488;BMP180;68949;53.176;18.088;2023-05-25T14:36:47;101015.20;;;
79488;BMP180;68949;53.176;18.088;2023-05-25T14:39:14;101015.00;;;
79488;BMP180;68949;53.176;18.088;2023-05-25T14:41:42;101023.60;;;
79488;BMP180;68949;53.176;18.088;2023-05-25T14:44:09;101015.00;;;
79488;BMP180;68949;53.176;18.088;2023-05-25T14:46:36;101014.80;;;
79488;BMP180;68949;53.176;18.088;2023-05-25T14:49:02;101017.40;;;
79488;BMP180;68949;53.176;18.088;2023-05-25T14:51:29;101006.40;;;
79488;BMP180;68949;53.176;18.088;2023-05-25T14:53:56;101010.20;;;
79488;BMP180;68949;53.176;18.088;2023-05-25T14:56:25;101028.40;;;
79488;BMP180;68949;53.176;18.088;2023-05-25T14:58:52;101010.80;;;
79488;BMP180;68949;53.176;18.088;2023-05-25T15:01:18;101016.60;;;
79488;BMP180;68949;53.176;18.088;2023-05-25T15:03:45;101018.80;;;
79488;BMP180;68949;53.176;18.088;2023-05-25T15:06:12;101005.20;;;
79488;BMP180;68949;53.176;18.088;2023-05-25T15:08:39;101003.60;;;
79488;BMP180;68949;53.176;18.088;2023-05-25T15:11:08;101009.20;;;